SDM6565 ULLI-URSS
Flight info
| Callsign | SDM6565 |
|---|---|
| Flight time | N/A |
| Altitude | 35000 |
| Route | K0830F350 SUGI1B SUGIN T873 NIRGI T873 IRDEK L4 UPERI T833 TOGMO M56 ULKID/K0854F370 M56 ABAGI B105 NIMTA/K0849F360 B105 NATIT DCT MOLED N50 LIDUS G242 ZG DCT ITAKA/K0827F380 DCT OBBUD DCT AMKOL DCT GOTIK DCT MEMZA DCT VENFO DCT BINOL |
| Aircraft | A319/M-SDFGHIJ1RWY/B1L |
Departure
| Time | N/A |
|---|---|
| Airport | Pulkovo Airport (ULLI) |
Arrival
| Time | 2026-05-01 14:49 |
|---|---|
| Airport | Sochi International Airport (URSS) |
| Time | Latitude | Longitude | Altitude | Speed | Heading |
|---|---|---|---|---|---|
| 2026-05-01 11:59 | 53.82001 | 41.86134 | 35166 ft | 470 kts | 106° |
| 2026-05-01 11:59 | 53.81086 | 41.91445 | 35166 ft | 470 kts | 106° |
| 2026-05-01 12:00 | 53.78236 | 42.07957 | 35157 ft | 471 kts | 107° |
| 2026-05-01 12:01 | 53.75471 | 42.23835 | 35171 ft | 472 kts | 107° |
| 2026-05-01 12:01 | 53.73597 | 42.34466 | 35167 ft | 472 kts | 107° |
| 2026-05-01 12:02 | 53.71719 | 42.45097 | 35168 ft | 472 kts | 107° |
| 2026-05-01 12:02 | 53.69801 | 42.55701 | 35162 ft | 472 kts | 111° |
| 2026-05-01 12:02 | 53.68406 | 42.60700 | 35161 ft | 471 kts | 122° |
| 2026-05-01 12:03 | 53.66502 | 42.65172 | 35154 ft | 469 kts | 133° |
| 2026-05-01 12:03 | 53.61485 | 42.72011 | 35155 ft | 464 kts | 153° |
| 2026-05-01 12:04 | 53.55595 | 42.76424 | 35155 ft | 464 kts | 158° |
| 2026-05-01 12:04 | 53.49664 | 42.80698 | 35152 ft | 464 kts | 158° |
| 2026-05-01 12:05 | 53.43717 | 42.84974 | 35151 ft | 464 kts | 158° |
| 2026-05-01 12:05 | 53.34807 | 42.91376 | 35157 ft | 465 kts | 158° |
| 2026-05-01 12:06 | 53.28859 | 42.95626 | 35158 ft | 465 kts | 159° |
| 2026-05-01 12:06 | 53.22913 | 42.99861 | 35162 ft | 465 kts | 159° |
| 2026-05-01 12:07 | 53.16991 | 43.04056 | 35172 ft | 465 kts | 159° |
| 2026-05-01 12:07 | 53.11040 | 43.08276 | 35168 ft | 464 kts | 158° |
| 2026-05-01 12:08 | 53.05138 | 43.12660 | 35166 ft | 464 kts | 158° |
| 2026-05-01 12:08 | 52.99255 | 43.17106 | 35162 ft | 464 kts | 158° |
| 2026-05-01 12:09 | 52.93396 | 43.21475 | 35161 ft | 464 kts | 158° |
| 2026-05-01 12:09 | 52.87491 | 43.25821 | 35155 ft | 464 kts | 158° |
| 2026-05-01 12:10 | 52.78641 | 43.32318 | 35147 ft | 464 kts | 159° |
| 2026-05-01 12:11 | 52.69782 | 43.38788 | 35147 ft | 464 kts | 159° |
| 2026-05-01 12:11 | 52.63885 | 43.43087 | 35145 ft | 464 kts | 159° |
| 2026-05-01 12:12 | 52.57984 | 43.47388 | 35142 ft | 464 kts | 159° |
| 2026-05-01 12:12 | 52.52121 | 43.51643 | 35142 ft | 463 kts | 159° |
| 2026-05-01 12:13 | 52.46220 | 43.55899 | 35138 ft | 463 kts | 159° |
| 2026-05-01 12:13 | 52.40323 | 43.60131 | 35134 ft | 463 kts | 160° |
| 2026-05-01 12:14 | 52.34429 | 43.64364 | 35135 ft | 462 kts | 160° |
| 2026-05-01 12:14 | 52.28532 | 43.68593 | 35348 ft | 463 kts | 160° |
| 2026-05-01 12:15 | 52.25582 | 43.70698 | 35593 ft | 462 kts | 160° |
| 2026-05-01 12:15 | 52.22635 | 43.72798 | 35825 ft | 462 kts | 160° |
| 2026-05-01 12:15 | 52.19689 | 43.74896 | 36043 ft | 462 kts | 160° |
| 2026-05-01 12:15 | 52.16741 | 43.76994 | 36252 ft | 462 kts | 160° |
| 2026-05-01 12:16 | 52.13799 | 43.79087 | 36451 ft | 461 kts | 160° |
| 2026-05-01 12:16 | 52.10853 | 43.81179 | 36634 ft | 461 kts | 160° |
| 2026-05-01 12:16 | 52.07913 | 43.83258 | 36822 ft | 461 kts | 160° |
| 2026-05-01 12:16 | 52.04971 | 43.85338 | 37003 ft | 461 kts | 160° |
| 2026-05-01 12:17 | 52.02026 | 43.87416 | 37121 ft | 461 kts | 160° |
| 2026-05-01 12:17 | 51.99083 | 43.89491 | 37137 ft | 461 kts | 160° |
| 2026-05-01 12:17 | 51.93235 | 43.93605 | 37140 ft | 461 kts | 160° |
| 2026-05-01 12:18 | 51.87319 | 43.97761 | 37140 ft | 461 kts | 160° |
| 2026-05-01 12:18 | 51.81476 | 44.01847 | 37134 ft | 460 kts | 160° |
| 2026-05-01 12:19 | 51.75594 | 44.05945 | 37134 ft | 460 kts | 160° |
| 2026-05-01 12:19 | 51.69709 | 44.10041 | 37134 ft | 460 kts | 160° |
| 2026-05-01 12:20 | 51.64783 | 44.13464 | 37135 ft | 460 kts | 161° |
| 2026-05-01 12:20 | 51.58932 | 44.17508 | 37137 ft | 460 kts | 161° |
| 2026-05-01 12:21 | 51.53049 | 44.21566 | 37140 ft | 460 kts | 161° |
| 2026-05-01 12:21 | 51.47160 | 44.25621 | 37139 ft | 460 kts | 161° |
| 2026-05-01 12:22 | 51.41274 | 44.29668 | 37141 ft | 460 kts | 161° |
| 2026-05-01 12:22 | 51.35390 | 44.33697 | 37145 ft | 460 kts | 161° |
| 2026-05-01 12:23 | 51.29495 | 44.37718 | 37147 ft | 460 kts | 161° |
| 2026-05-01 12:23 | 51.23606 | 44.41722 | 37147 ft | 460 kts | 161° |
| 2026-05-01 12:24 | 51.17675 | 44.45467 | 37144 ft | 455 kts | 169° |
| 2026-05-01 12:24 | 51.11496 | 44.46532 | 37148 ft | 442 kts | 188° |
| 2026-05-01 12:25 | 51.02270 | 44.45646 | 37146 ft | 442 kts | 187° |
| 2026-05-01 12:26 | 50.96172 | 44.45071 | 37155 ft | 442 kts | 188° |
| 2026-05-01 12:26 | 50.86962 | 44.44205 | 37162 ft | 442 kts | 188° |
| 2026-05-01 12:27 | 50.77756 | 44.43359 | 37163 ft | 441 kts | 188° |
| 2026-05-01 12:28 | 50.68613 | 44.42503 | 37170 ft | 440 kts | 188° |
| 2026-05-01 12:29 | 50.59434 | 44.41663 | 37165 ft | 440 kts | 188° |
| 2026-05-01 12:29 | 50.50268 | 44.40808 | 37172 ft | 439 kts | 188° |
| 2026-05-01 12:30 | 50.41116 | 44.39977 | 37169 ft | 439 kts | 188° |
| 2026-05-01 12:31 | 50.35021 | 44.39424 | 37171 ft | 438 kts | 188° |
| 2026-05-01 12:31 | 50.28933 | 44.38868 | 37172 ft | 438 kts | 188° |
| 2026-05-01 12:32 | 50.22854 | 44.38311 | 37173 ft | 438 kts | 188° |
| 2026-05-01 12:32 | 50.13741 | 44.37485 | 37169 ft | 437 kts | 188° |
| 2026-05-01 12:33 | 50.07714 | 44.36956 | 37164 ft | 436 kts | 188° |
| 2026-05-01 12:33 | 50.01656 | 44.36421 | 37165 ft | 436 kts | 188° |
| 2026-05-01 12:34 | 49.95596 | 44.35877 | 37161 ft | 435 kts | 188° |
| 2026-05-01 12:34 | 49.89549 | 44.35340 | 37161 ft | 435 kts | 188° |
| 2026-05-01 12:35 | 49.83513 | 44.34792 | 37171 ft | 434 kts | 189° |
| 2026-05-01 12:35 | 49.77481 | 44.34253 | 37172 ft | 434 kts | 189° |
| 2026-05-01 12:36 | 49.71462 | 44.33726 | 37168 ft | 433 kts | 189° |
| 2026-05-01 12:36 | 49.65443 | 44.33189 | 37169 ft | 433 kts | 189° |
| 2026-05-01 12:37 | 49.59425 | 44.32731 | 37163 ft | 436 kts | 184° |
| 2026-05-01 12:37 | 49.53401 | 44.34600 | 37160 ft | 452 kts | 164° |
| 2026-05-01 12:38 | 49.47579 | 44.38341 | 37157 ft | 453 kts | 164° |
| 2026-05-01 12:38 | 49.41790 | 44.42023 | 37154 ft | 453 kts | 164° |
| 2026-05-01 12:39 | 49.35961 | 44.45708 | 37152 ft | 453 kts | 164° |
| 2026-05-01 12:39 | 49.30133 | 44.49386 | 37149 ft | 453 kts | 164° |
| 2026-05-01 12:40 | 49.24303 | 44.53064 | 37150 ft | 453 kts | 164° |
| 2026-05-01 12:40 | 49.18474 | 44.56738 | 37156 ft | 453 kts | 165° |
| 2026-05-01 12:41 | 49.12641 | 44.60400 | 37159 ft | 453 kts | 165° |
| 2026-05-01 12:41 | 49.06819 | 44.64048 | 37159 ft | 452 kts | 165° |
| 2026-05-01 12:42 | 49.00994 | 44.67684 | 37165 ft | 452 kts | 165° |
| 2026-05-01 12:42 | 48.95176 | 44.71308 | 37164 ft | 452 kts | 165° |
| 2026-05-01 12:43 | 48.89351 | 44.74929 | 37168 ft | 451 kts | 165° |
| 2026-05-01 12:43 | 48.83597 | 44.78835 | 37175 ft | 460 kts | 156° |
| 2026-05-01 12:44 | 48.78417 | 44.84700 | 37173 ft | 467 kts | 149° |
| 2026-05-01 12:45 | 48.68185 | 44.96809 | 37160 ft | 467 kts | 149° |
| 2026-05-01 12:45 | 48.63091 | 45.02809 | 37163 ft | 467 kts | 150° |
| 2026-05-01 12:46 | 48.57967 | 45.08831 | 37155 ft | 467 kts | 150° |
| 2026-05-01 12:46 | 48.52833 | 45.14860 | 37148 ft | 467 kts | 150° |
| 2026-05-01 12:47 | 48.47701 | 45.20878 | 37148 ft | 468 kts | 150° |
| 2026-05-01 12:47 | 48.42549 | 45.26883 | 37151 ft | 468 kts | 150° |
| 2026-05-01 12:48 | 48.37086 | 45.31920 | 37154 ft | 456 kts | 162° |
| 2026-05-01 12:48 | 48.31391 | 45.36100 | 37156 ft | 456 kts | 162° |
| 2026-05-01 12:49 | 48.25681 | 45.40277 | 37171 ft | 456 kts | 162° |
| 2026-05-01 12:49 | 48.19978 | 45.44450 | 37172 ft | 456 kts | 162° |
| 2026-05-01 12:50 | 48.14280 | 45.48628 | 37177 ft | 456 kts | 162° |
| 2026-05-01 12:50 | 48.08614 | 45.52763 | 37177 ft | 455 kts | 162° |
| 2026-05-01 12:51 | 48.02921 | 45.56898 | 37181 ft | 454 kts | 162° |
| 2026-05-01 12:52 | 47.94398 | 45.63047 | 37182 ft | 453 kts | 162° |
| 2026-05-01 12:52 | 47.85901 | 45.69174 | 37173 ft | 452 kts | 162° |
| 2026-05-01 12:53 | 47.77414 | 45.75285 | 37177 ft | 451 kts | 162° |
| 2026-05-01 12:54 | 47.71769 | 45.79338 | 37181 ft | 451 kts | 162° |
| 2026-05-01 12:54 | 47.63299 | 45.85396 | 37177 ft | 450 kts | 162° |
| 2026-05-01 12:55 | 47.54881 | 45.91401 | 37174 ft | 449 kts | 162° |
| 2026-05-01 12:56 | 47.49242 | 45.95391 | 37170 ft | 448 kts | 162° |
| 2026-05-01 12:56 | 47.43619 | 45.99365 | 37171 ft | 448 kts | 162° |
| 2026-05-01 12:57 | 47.37992 | 46.03346 | 37171 ft | 448 kts | 162° |
| 2026-05-01 12:57 | 47.29567 | 46.09307 | 37168 ft | 447 kts | 162° |
| 2026-05-01 12:58 | 47.23956 | 46.13272 | 37168 ft | 447 kts | 162° |
| 2026-05-01 12:59 | 47.15584 | 46.19165 | 37160 ft | 446 kts | 162° |
| 2026-05-01 12:59 | 47.07249 | 46.25307 | 37145 ft | 455 kts | 153° |
| 2026-05-01 13:00 | 47.02610 | 46.31873 | 37139 ft | 476 kts | 131° |
| 2026-05-01 13:00 | 47.00801 | 46.35966 | 37135 ft | 479 kts | 129° |
| 2026-05-01 13:01 | 46.95458 | 46.48300 | 37130 ft | 480 kts | 129° |
| 2026-05-01 13:02 | 46.90059 | 46.60652 | 37133 ft | 481 kts | 129° |
| 2026-05-01 13:07 | 46.50308 | 47.51057 | 37102 ft | 483 kts | 128° |
| 2026-05-01 13:08 | 46.46680 | 47.59274 | 37108 ft | 483 kts | 129° |
| 2026-05-01 13:08 | 46.43048 | 47.67464 | 37106 ft | 483 kts | 129° |
| 2026-05-01 13:09 | 46.39429 | 47.75599 | 37108 ft | 483 kts | 129° |
| 2026-05-01 13:09 | 46.35789 | 47.83778 | 37106 ft | 483 kts | 129° |
| 2026-05-01 13:10 | 46.32137 | 47.91949 | 37112 ft | 483 kts | 129° |
| 2026-05-01 13:10 | 46.28694 | 48.00333 | 37115 ft | 490 kts | 118° |
| 2026-05-01 13:11 | 46.26761 | 48.09851 | 37113 ft | 498 kts | 106° |
| 2026-05-01 13:11 | 46.25281 | 48.19632 | 37109 ft | 498 kts | 106° |
| 2026-05-01 13:12 | 46.23778 | 48.29396 | 37113 ft | 498 kts | 106° |
| 2026-05-01 13:12 | 46.22263 | 48.39173 | 37119 ft | 499 kts | 106° |
| 2026-05-01 13:13 | 46.20498 | 48.48818 | 37122 ft | 492 kts | 118° |
| 2026-05-01 13:13 | 46.18926 | 48.53158 | 37119 ft | 483 kts | 129° |
| 2026-05-01 13:13 | 46.16911 | 48.56880 | 37118 ft | 474 kts | 140° |
| 2026-05-01 13:13 | 46.14485 | 48.60021 | 37107 ft | 463 kts | 151° |
| 2026-05-01 13:14 | 46.11786 | 48.62453 | 37109 ft | 453 kts | 161° |
| 2026-05-01 13:14 | 46.05942 | 48.65357 | 37098 ft | 442 kts | 172° |
| 2026-05-01 13:15 | 46.00014 | 48.67726 | 37098 ft | 442 kts | 171° |
| 2026-05-01 13:15 | 45.95089 | 48.69714 | 37101 ft | 443 kts | 171° |
| 2026-05-01 13:16 | 45.89157 | 48.72104 | 37104 ft | 443 kts | 171° |
| 2026-05-01 13:16 | 45.82261 | 48.74875 | 37112 ft | 443 kts | 171° |
| 2026-05-01 13:17 | 45.71394 | 48.79201 | 37112 ft | 442 kts | 171° |
| 2026-05-01 13:18 | 45.62496 | 48.82726 | 37120 ft | 442 kts | 171° |
| 2026-05-01 13:18 | 45.56576 | 48.85069 | 37119 ft | 442 kts | 171° |
| 2026-05-01 13:19 | 45.50653 | 48.87416 | 37121 ft | 441 kts | 171° |
| 2026-05-01 13:20 | 45.41783 | 48.90911 | 37117 ft | 441 kts | 171° |
| 2026-05-01 13:20 | 45.35870 | 48.93230 | 37112 ft | 440 kts | 171° |
| 2026-05-01 13:21 | 45.27015 | 48.96698 | 37109 ft | 440 kts | 171° |
| 2026-05-01 13:21 | 45.21108 | 48.99009 | 37106 ft | 440 kts | 171° |
| 2026-05-01 13:22 | 45.15210 | 49.01315 | 37109 ft | 440 kts | 171° |
| 2026-05-01 13:22 | 45.09307 | 49.03611 | 37098 ft | 439 kts | 171° |
| 2026-05-01 13:23 | 45.03407 | 49.05905 | 37099 ft | 439 kts | 171° |
| 2026-05-01 13:23 | 44.97517 | 49.08186 | 37093 ft | 439 kts | 171° |
| 2026-05-01 13:24 | 44.91655 | 49.10439 | 37088 ft | 439 kts | 171° |
| 2026-05-01 13:25 | 44.82813 | 49.13850 | 37087 ft | 439 kts | 170° |
| 2026-05-01 13:25 | 44.76920 | 49.16122 | 37088 ft | 439 kts | 171° |
| 2026-05-01 13:26 | 44.71017 | 49.18387 | 37097 ft | 439 kts | 171° |
| 2026-05-01 13:26 | 44.65120 | 49.20638 | 37099 ft | 439 kts | 170° |
| 2026-05-01 13:27 | 44.59225 | 49.22901 | 37094 ft | 439 kts | 170° |
| 2026-05-01 13:27 | 44.50376 | 49.26276 | 37091 ft | 439 kts | 171° |
| 2026-05-01 13:28 | 44.41532 | 49.29624 | 37091 ft | 439 kts | 170° |
| 2026-05-01 13:29 | 44.29784 | 49.34078 | 37091 ft | 438 kts | 171° |
| 2026-05-01 13:30 | 44.18001 | 49.38526 | 37634 ft | 438 kts | 171° |
| 2026-05-01 13:31 | 44.12126 | 49.40747 | 38065 ft | 437 kts | 171° |
| 2026-05-01 13:32 | 43.97449 | 49.46151 | 38084 ft | 432 kts | 177° |
| 2026-05-01 13:33 | 43.89313 | 49.43307 | 38086 ft | 404 kts | 222° |
| 2026-05-01 13:33 | 43.86027 | 49.37182 | 38082 ft | 399 kts | 249° |
| 2026-05-01 13:34 | 43.84010 | 49.22026 | 38068 ft | 402 kts | 259° |
| 2026-05-01 13:35 | 43.82614 | 49.10564 | 38069 ft | 403 kts | 258° |
| 2026-05-01 13:36 | 43.81208 | 48.99081 | 38071 ft | 403 kts | 258° |
| 2026-05-01 13:36 | 43.79800 | 48.87636 | 38073 ft | 404 kts | 258° |
| 2026-05-01 13:37 | 43.78845 | 48.79967 | 38074 ft | 404 kts | 258° |
| 2026-05-01 13:37 | 43.77890 | 48.72317 | 38071 ft | 404 kts | 258° |
| 2026-05-01 13:38 | 43.76452 | 48.60822 | 38066 ft | 404 kts | 258° |
| 2026-05-01 13:39 | 43.75485 | 48.53202 | 38061 ft | 404 kts | 258° |
| 2026-05-01 13:39 | 43.74501 | 48.45544 | 38055 ft | 404 kts | 258° |
| 2026-05-01 13:40 | 43.73512 | 48.37883 | 38049 ft | 404 kts | 258° |
| 2026-05-01 13:40 | 43.72526 | 48.30225 | 38043 ft | 404 kts | 258° |
| 2026-05-01 13:41 | 43.71533 | 48.22576 | 38036 ft | 405 kts | 258° |
| 2026-05-01 13:41 | 43.70525 | 48.14907 | 38035 ft | 406 kts | 258° |
| 2026-05-01 13:42 | 43.69519 | 48.07233 | 38042 ft | 406 kts | 258° |
| 2026-05-01 13:42 | 43.68511 | 47.99547 | 38036 ft | 406 kts | 258° |
| 2026-05-01 13:43 | 43.67505 | 47.91913 | 38029 ft | 407 kts | 258° |
| 2026-05-01 13:43 | 43.66477 | 47.84225 | 38027 ft | 407 kts | 257° |
| 2026-05-01 13:44 | 43.65442 | 47.76530 | 38024 ft | 407 kts | 257° |
| 2026-05-01 13:44 | 43.64401 | 47.68854 | 38017 ft | 408 kts | 258° |
| 2026-05-01 13:45 | 43.63359 | 47.61157 | 38011 ft | 408 kts | 258° |
| 2026-05-01 13:45 | 43.62309 | 47.53450 | 38013 ft | 408 kts | 257° |
| 2026-05-01 13:46 | 43.61353 | 47.45713 | 38001 ft | 410 kts | 261° |
| 2026-05-01 13:46 | 43.60731 | 47.37892 | 38003 ft | 411 kts | 262° |
| 2026-05-01 13:47 | 43.60177 | 47.30034 | 38001 ft | 411 kts | 262° |
| 2026-05-01 13:47 | 43.59556 | 47.22193 | 38002 ft | 411 kts | 261° |
| 2026-05-01 13:48 | 43.58889 | 47.14350 | 38000 ft | 412 kts | 261° |
| 2026-05-01 13:48 | 43.58213 | 47.06549 | 38001 ft | 412 kts | 261° |
| 2026-05-01 13:49 | 43.57532 | 46.98704 | 38000 ft | 412 kts | 261° |
| 2026-05-01 13:49 | 43.56858 | 46.90856 | 37999 ft | 412 kts | 261° |
| 2026-05-01 13:50 | 43.56182 | 46.83062 | 37994 ft | 412 kts | 261° |
| 2026-05-01 13:50 | 43.55487 | 46.75221 | 37997 ft | 412 kts | 261° |
| 2026-05-01 13:51 | 43.54791 | 46.67391 | 37994 ft | 411 kts | 261° |
| 2026-05-01 13:51 | 43.54099 | 46.59566 | 37997 ft | 411 kts | 261° |
| 2026-05-01 13:52 | 43.53400 | 46.51752 | 37993 ft | 410 kts | 261° |
| 2026-05-01 13:52 | 43.52694 | 46.43955 | 37993 ft | 410 kts | 261° |
| 2026-05-01 13:53 | 43.51980 | 46.36183 | 37990 ft | 409 kts | 261° |
| 2026-05-01 13:53 | 43.50909 | 46.24581 | 37985 ft | 408 kts | 261° |
| 2026-05-01 13:54 | 43.50180 | 46.16797 | 37976 ft | 407 kts | 261° |
| 2026-05-01 13:54 | 43.49455 | 46.09125 | 37973 ft | 406 kts | 260° |
| 2026-05-01 13:55 | 43.49194 | 46.01346 | 37965 ft | 410 kts | 273° |
| 2026-05-01 13:55 | 43.49858 | 45.93540 | 37966 ft | 410 kts | 273° |
| 2026-05-01 13:56 | 43.50507 | 45.85742 | 37967 ft | 410 kts | 273° |
| 2026-05-01 13:56 | 43.51147 | 45.77944 | 37966 ft | 410 kts | 273° |
| 2026-05-01 13:57 | 43.51673 | 45.71464 | 37960 ft | 409 kts | 273° |
| 2026-05-01 13:57 | 43.52405 | 45.62400 | 37961 ft | 410 kts | 273° |
| 2026-05-01 13:58 | 43.53028 | 45.54597 | 37963 ft | 410 kts | 273° |
| 2026-05-01 13:58 | 43.53646 | 45.46788 | 37964 ft | 410 kts | 273° |
| 2026-05-01 13:59 | 43.54268 | 45.38972 | 37953 ft | 410 kts | 273° |
| 2026-05-01 13:59 | 43.54885 | 45.31156 | 37962 ft | 410 kts | 272° |
| 2026-05-01 14:00 | 43.55490 | 45.23339 | 37959 ft | 410 kts | 272° |
| 2026-05-01 14:00 | 43.56089 | 45.15502 | 37963 ft | 411 kts | 272° |
| 2026-05-01 14:01 | 43.56676 | 45.07710 | 37966 ft | 411 kts | 272° |
| 2026-05-01 14:01 | 43.57267 | 44.99868 | 37977 ft | 412 kts | 272° |
| 2026-05-01 14:02 | 43.57856 | 44.92005 | 37981 ft | 412 kts | 272° |
| 2026-05-01 14:02 | 43.58440 | 44.84139 | 37980 ft | 412 kts | 272° |
| 2026-05-01 14:03 | 43.59023 | 44.76266 | 37989 ft | 413 kts | 272° |
| 2026-05-01 14:03 | 43.59590 | 44.68381 | 37994 ft | 413 kts | 272° |
| 2026-05-01 14:04 | 43.60147 | 44.60495 | 37997 ft | 413 kts | 272° |
| 2026-05-01 14:04 | 43.60615 | 44.53947 | 37999 ft | 412 kts | 272° |
| 2026-05-01 14:05 | 43.61262 | 44.44797 | 37999 ft | 412 kts | 272° |
| 2026-05-01 14:05 | 43.61811 | 44.36915 | 37997 ft | 412 kts | 272° |
| 2026-05-01 14:06 | 43.62356 | 44.29033 | 38000 ft | 412 kts | 272° |
| 2026-05-01 14:06 | 43.62895 | 44.21176 | 38000 ft | 411 kts | 271° |
| 2026-05-01 14:07 | 43.63413 | 44.13327 | 37997 ft | 410 kts | 271° |
| 2026-05-01 14:08 | 43.63848 | 44.01613 | 37994 ft | 408 kts | 268° |
| 2026-05-01 14:08 | 43.64010 | 43.93778 | 37990 ft | 408 kts | 268° |
| 2026-05-01 14:09 | 43.64198 | 43.85956 | 37992 ft | 408 kts | 268° |
| 2026-05-01 14:09 | 43.64424 | 43.78133 | 37987 ft | 408 kts | 269° |
| 2026-05-01 14:10 | 43.64655 | 43.70311 | 37986 ft | 408 kts | 269° |
| 2026-05-01 14:10 | 43.64864 | 43.62524 | 37981 ft | 408 kts | 268° |
| 2026-05-01 14:11 | 43.65060 | 43.54704 | 37981 ft | 408 kts | 268° |
| 2026-05-01 14:11 | 43.65335 | 43.42957 | 37981 ft | 408 kts | 268° |
| 2026-05-01 14:12 | 43.65492 | 43.36444 | 37980 ft | 408 kts | 268° |
| 2026-05-01 14:12 | 43.65678 | 43.28603 | 37979 ft | 408 kts | 268° |
| 2026-05-01 14:13 | 43.65863 | 43.20755 | 37987 ft | 409 kts | 268° |
| 2026-05-01 14:13 | 43.66035 | 43.12904 | 37989 ft | 409 kts | 268° |
| 2026-05-01 14:14 | 43.66196 | 43.05095 | 37986 ft | 409 kts | 268° |
| 2026-05-01 14:14 | 43.66359 | 42.97239 | 37982 ft | 409 kts | 268° |
| 2026-05-01 14:15 | 43.66514 | 42.89383 | 37982 ft | 409 kts | 268° |
| 2026-05-01 14:15 | 43.66665 | 42.81511 | 37975 ft | 410 kts | 268° |
| 2026-05-01 14:16 | 43.66813 | 42.73641 | 37960 ft | 410 kts | 268° |
| 2026-05-01 14:16 | 43.66951 | 42.65765 | 37964 ft | 410 kts | 268° |
| 2026-05-01 14:17 | 43.67083 | 42.57893 | 37955 ft | 410 kts | 268° |
| 2026-05-01 14:17 | 43.67207 | 42.50083 | 37956 ft | 409 kts | 268° |
| 2026-05-01 14:18 | 43.67331 | 42.42218 | 37952 ft | 409 kts | 268° |
| 2026-05-01 14:18 | 43.67455 | 42.34363 | 37960 ft | 408 kts | 268° |
| 2026-05-01 14:19 | 43.67565 | 42.26524 | 37954 ft | 408 kts | 268° |
| 2026-05-01 14:19 | 43.67671 | 42.18694 | 37963 ft | 407 kts | 268° |
| 2026-05-01 14:20 | 43.67825 | 42.06994 | 37956 ft | 407 kts | 268° |
| 2026-05-01 14:21 | 43.67919 | 41.99167 | 37958 ft | 407 kts | 268° |
| 2026-05-01 14:21 | 43.68011 | 41.91344 | 37952 ft | 407 kts | 268° |
| 2026-05-01 14:22 | 43.68128 | 41.79603 | 37954 ft | 408 kts | 268° |
| 2026-05-01 14:22 | 43.68197 | 41.71816 | 37961 ft | 408 kts | 268° |
| 2026-05-01 14:23 | 43.68272 | 41.63970 | 37965 ft | 409 kts | 268° |
| 2026-05-01 14:23 | 43.68335 | 41.56117 | 37955 ft | 409 kts | 268° |
| 2026-05-01 14:24 | 43.68398 | 41.48255 | 37958 ft | 409 kts | 268° |
| 2026-05-01 14:24 | 43.68451 | 41.40381 | 37964 ft | 410 kts | 268° |
| 2026-05-01 14:25 | 43.68497 | 41.32502 | 37964 ft | 410 kts | 267° |
| 2026-05-01 14:25 | 43.68541 | 41.24625 | 37970 ft | 410 kts | 267° |
| 2026-05-01 14:26 | 43.68596 | 41.12842 | 37522 ft | 409 kts | 267° |
| 2026-05-01 14:26 | 43.68612 | 41.08920 | 37257 ft | 407 kts | 267° |
| 2026-05-01 14:27 | 43.68628 | 41.05014 | 36987 ft | 406 kts | 266° |
| 2026-05-01 14:27 | 43.68642 | 41.01106 | 36732 ft | 406 kts | 266° |
| 2026-05-01 14:27 | 43.68653 | 40.97215 | 36477 ft | 405 kts | 266° |
| 2026-05-01 14:28 | 43.68669 | 40.89421 | 35045 ft | 408 kts | 266° |
| 2026-05-01 14:28 | 43.68678 | 40.85483 | 34273 ft | 411 kts | 266° |
| 2026-05-01 14:28 | 43.68695 | 40.81553 | 33665 ft | 407 kts | 266° |
| 2026-05-01 14:28 | 43.68717 | 40.77664 | 32328 ft | 406 kts | 266° |
| 2026-05-01 14:29 | 43.68742 | 40.73770 | 31135 ft | 403 kts | 266° |
| 2026-05-01 14:29 | 43.68764 | 40.69896 | 29781 ft | 405 kts | 266° |
| 2026-05-01 14:30 | 43.68803 | 40.58296 | 25844 ft | 398 kts | 265° |
| 2026-05-01 14:30 | 43.68816 | 40.54494 | 24788 ft | 393 kts | 265° |
| 2026-05-01 14:30 | 43.68825 | 40.50752 | 23711 ft | 388 kts | 265° |
| 2026-05-01 14:31 | 43.68855 | 40.43371 | 21536 ft | 381 kts | 268° |
| 2026-05-01 14:31 | 43.69359 | 40.39760 | 20686 ft | 385 kts | 278° |
| 2026-05-01 14:31 | 43.69988 | 40.36156 | 19993 ft | 386 kts | 275° |
| 2026-05-01 14:31 | 43.70369 | 40.32500 | 19307 ft | 383 kts | 272° |
| 2026-05-01 14:32 | 43.70660 | 40.28873 | 18835 ft | 375 kts | 268° |
| 2026-05-01 14:32 | 43.70647 | 40.25325 | 18403 ft | 365 kts | 262° |
| 2026-05-01 14:32 | 43.70368 | 40.21863 | 17858 ft | 359 kts | 258° |
| 2026-05-01 14:32 | 43.69961 | 40.18474 | 17342 ft | 354 kts | 251° |
| 2026-05-01 14:33 | 43.69206 | 40.15311 | 16748 ft | 351 kts | 248° |
| 2026-05-01 14:33 | 43.68404 | 40.12135 | 16174 ft | 350 kts | 248° |
| 2026-05-01 14:33 | 43.67593 | 40.08975 | 15631 ft | 347 kts | 247° |
| 2026-05-01 14:33 | 43.66518 | 40.06027 | 15021 ft | 342 kts | 234° |
| 2026-05-01 14:34 | 43.65134 | 40.03372 | 14441 ft | 340 kts | 232° |
| 2026-05-01 14:34 | 43.63736 | 40.00741 | 13894 ft | 339 kts | 233° |
| 2026-05-01 14:34 | 43.62338 | 39.98142 | 13313 ft | 336 kts | 232° |
| 2026-05-01 14:34 | 43.60828 | 39.95685 | 12677 ft | 334 kts | 224° |
| 2026-05-01 14:35 | 43.59057 | 39.93641 | 12068 ft | 332 kts | 218° |
| 2026-05-01 14:35 | 43.57222 | 39.91716 | 11416 ft | 331 kts | 218° |
| 2026-05-01 14:35 | 43.55389 | 39.89803 | 10800 ft | 330 kts | 218° |
| 2026-05-01 14:35 | 43.53579 | 39.87927 | 10546 ft | 318 kts | 217° |
| 2026-05-01 14:36 | 43.51857 | 39.86142 | 10410 ft | 303 kts | 217° |
| 2026-05-01 14:36 | 43.50155 | 39.84533 | 10291 ft | 290 kts | 212° |
| 2026-05-01 14:36 | 43.48475 | 39.83151 | 10176 ft | 278 kts | 212° |
| 2026-05-01 14:36 | 43.47081 | 39.81432 | 10049 ft | 266 kts | 236° |
| 2026-05-01 14:37 | 43.46374 | 39.79139 | 9960 ft | 256 kts | 251° |
| 2026-05-01 14:37 | 43.46000 | 39.76784 | 9794 ft | 250 kts | 261° |
| 2026-05-01 14:37 | 43.45827 | 39.74417 | 9490 ft | 247 kts | 262° |
| 2026-05-01 14:37 | 43.45675 | 39.72064 | 9150 ft | 247 kts | 262° |
| 2026-05-01 14:38 | 43.45524 | 39.69714 | 8809 ft | 246 kts | 263° |
| 2026-05-01 14:38 | 43.45374 | 39.67374 | 8471 ft | 245 kts | 263° |
| 2026-05-01 14:38 | 43.45401 | 39.65030 | 8112 ft | 246 kts | 271° |
| 2026-05-01 14:38 | 43.45517 | 39.62679 | 7755 ft | 246 kts | 271° |
| 2026-05-01 14:39 | 43.45637 | 39.60332 | 7472 ft | 242 kts | 271° |
| 2026-05-01 14:39 | 43.45753 | 39.58081 | 7344 ft | 230 kts | 271° |
| 2026-05-01 14:39 | 43.45869 | 39.55920 | 7054 ft | 224 kts | 271° |
| 2026-05-01 14:39 | 43.45982 | 39.53785 | 6689 ft | 224 kts | 271° |
| 2026-05-01 14:40 | 43.46087 | 39.51682 | 6329 ft | 223 kts | 271° |
| 2026-05-01 14:40 | 43.45830 | 39.49623 | 5934 ft | 219 kts | 241° |
| 2026-05-01 14:40 | 43.44790 | 39.48146 | 5540 ft | 217 kts | 207° |
| 2026-05-01 14:40 | 43.43325 | 39.47763 | 5141 ft | 219 kts | 173° |
| 2026-05-01 14:41 | 43.41864 | 39.48367 | 4820 ft | 221 kts | 157° |
| 2026-05-01 14:41 | 43.40681 | 39.49702 | 4479 ft | 222 kts | 131° |
| 2026-05-01 14:41 | 43.39756 | 39.51367 | 4325 ft | 214 kts | 128° |
| 2026-05-01 14:41 | 43.38901 | 39.52990 | 4195 ft | 206 kts | 127° |
| 2026-05-01 14:42 | 43.38079 | 39.54557 | 4038 ft | 199 kts | 127° |
| 2026-05-01 14:42 | 43.37276 | 39.56085 | 3818 ft | 197 kts | 127° |
| 2026-05-01 14:42 | 43.36620 | 39.57733 | 3552 ft | 198 kts | 111° |
| 2026-05-01 14:42 | 43.36190 | 39.59522 | 3315 ft | 197 kts | 108° |
| 2026-05-01 14:43 | 43.35792 | 39.61318 | 3073 ft | 196 kts | 108° |
| 2026-05-01 14:43 | 43.35395 | 39.63103 | 2826 ft | 195 kts | 107° |
| 2026-05-01 14:43 | 43.35002 | 39.64853 | 2581 ft | 194 kts | 107° |
| 2026-05-01 14:43 | 43.34904 | 39.66662 | 2321 ft | 192 kts | 70° |
| 2026-05-01 14:44 | 43.35567 | 39.68242 | 2088 ft | 190 kts | 59° |
| 2026-05-01 14:44 | 43.36709 | 39.71517 | 2027 ft | 191 kts | 64° |
| 2026-05-01 14:44 | 43.37268 | 39.73147 | 2026 ft | 191 kts | 64° |
| 2026-05-01 14:45 | 43.37839 | 39.74805 | 2029 ft | 190 kts | 64° |
| 2026-05-01 14:45 | 43.38945 | 39.78016 | 2039 ft | 172 kts | 65° |
| 2026-05-01 14:45 | 43.39432 | 39.79430 | 1982 ft | 155 kts | 65° |
| 2026-05-01 14:46 | 43.39864 | 39.80685 | 1846 ft | 142 kts | 65° |
| 2026-05-01 14:46 | 43.40691 | 39.83091 | 1521 ft | 137 kts | 65° |
| 2026-05-01 14:46 | 43.41099 | 39.84278 | 1344 ft | 138 kts | 64° |
| 2026-05-01 14:47 | 43.41507 | 39.85472 | 1168 ft | 138 kts | 65° |
| 2026-05-01 14:47 | 43.41915 | 39.86665 | 1012 ft | 138 kts | 65° |
| 2026-05-01 14:47 | 43.42329 | 39.87863 | 811 ft | 138 kts | 64° |
| 2026-05-01 14:48 | 43.43149 | 39.90258 | 442 ft | 138 kts | 64° |
| 2026-05-01 14:48 | 43.43562 | 39.91453 | 269 ft | 138 kts | 64° |
| 2026-05-01 14:48 | 43.44335 | 39.93708 | 62 ft | 89 kts | 64° |
| 2026-05-01 14:49 | 43.44705 | 39.94799 | 70 ft | 48 kts | 64° |
| 2026-05-01 14:49 | 43.44853 | 39.95198 | 81 ft | 8 kts | 26° |
| 2026-05-01 14:50 | 43.44914 | 39.95178 | 84 ft | 5 kts | 335° |
| 2026-05-01 14:50 | 43.44914 | 39.95049 | 80 ft | 9 kts | 244° |
| 2026-05-01 14:51 | 43.44889 | 39.94980 | 74 ft | 9 kts | 245° |
| 2026-05-01 14:51 | 43.44902 | 39.94861 | 73 ft | 8 kts | 268° |
| 2026-05-01 14:52 | 43.44846 | 39.94693 | 70 ft | 11 kts | 245° |
| 2026-05-01 14:52 | 43.44813 | 39.94599 | 68 ft | 11 kts | 244° |
| 2026-05-01 14:52 | 43.44771 | 39.94475 | 67 ft | 4 kts | 245° |
| 2026-05-01 14:53 | 43.44757 | 39.94435 | 75 ft | 5 kts | 245° |
| 2026-05-01 14:53 | 43.44740 | 39.94386 | 70 ft | 6 kts | 244° |
| 2026-05-01 14:53 | 43.44745 | 39.94343 | 74 ft | 5 kts | 333° |
| 2026-05-01 14:53 | 43.44779 | 39.94321 | 72 ft | 5 kts | 335° |
| 2026-05-01 14:54 | 43.44790 | 39.94313 | 72 ft | 0 kts | 335° |
| 2026-05-01 14:54 | 43.44792 | 39.94312 | 68 ft | 0 kts | 335° |